Time;durP1;ratioP1;P1;durP2;ratioP2;P2;SDS_P1;SDS_P2;PMS_P1;PMS_P2;Temp;Humidity;BMP_temperature;BMP_pressure;BME280_temperature;BME280_humidity;BME280_pressure;Samples;Min_cycle;Max_cycle;Signal;HPM_P1;HPM_P2
2022/06/16 00:00:54;;;;;;;1999.90;999.90;;;11.80;99.90;;;;;;5045294;28;20083;-75
2022/06/16 00:03:19;;;;;;;1999.90;999.90;;;11.80;99.90;;;;;;5029756;28;20120;-76
2022/06/16 00:05:45;;;;;;;1999.90;999.90;;;11.80;99.90;;;;;;5029374;28;20041;-76
2022/06/16 00:08:14;;;;;;;1999.90;999.90;;;11.90;99.90;;;;;;5029737;28;20045;-76
2022/06/16 00:11:16;;;;;;;1999.90;999.90;;;11.90;99.90;;;;;;5046411;28;20033;-75
2022/06/16 00:13:29;;;;;;;1999.90;999.90;;;11.90;99.90;;;;;;5059265;28;20076;-75
2022/06/16 00:15:55;;;;;;;1999.90;999.90;;;11.80;99.90;;;;;;5023178;28;20623;-75
2022/06/16 00:18:20;;;;;;;1999.90;999.90;;;11.80;99.90;;;;;;5029210;28;20103;-76
2022/06/16 00:20:46;;;;;;;1999.90;999.90;;;11.90;99.90;;;;;;5029757;28;20059;-76
2022/06/16 00:23:11;;;;;;;1999.90;999.90;;;11.90;99.90;;;;;;5026088;28;20060;-76
2022/06/16 00:25:37;;;;;;;1999.90;999.90;;;11.90;99.90;;;;;;5061181;28;20049;-75
2022/06/16 00:28:03;;;;;;;1999.90;999.90;;;11.90;99.90;;;;;;5028461;28;20076;-75
2022/06/16 00:30:28;;;;;;;1999.90;999.90;;;11.90;99.90;;;;;;5026704;28;20867;-76
2022/06/16 00:32:54;;;;;;;1999.90;999.90;;;11.80;99.90;;;;;;5045883;28;20478;-75
2022/06/16 00:35:19;;;;;;;1999.90;999.90;;;11.80;99.90;;;;;;5028375;28;20132;-76
2022/06/16 00:37:45;;;;;;;1999.90;999.90;;;11.80;99.90;;;;;;5028466;28;20780;-75
2022/06/16 00:40:12;;;;;;;1999.90;999.90;;;11.80;99.90;;;;;;5029194;28;20040;-76
2022/06/16 00:42:37;;;;;;;1999.90;999.90;;;11.70;99.90;;;;;;5045780;28;20045;-76
2022/06/16 00:45:23;;;;;;;1999.90;999.90;;;11.70;99.90;;;;;;5031977;28;20413;-76
2022/06/16 00:47:49;;;;;;;1999.90;999.90;;;11.60;99.90;;;;;;5027207;28;20048;-75
2022/06/16 00:50:15;;;;;;;1999.90;999.90;;;11.60;99.90;;;;;;5042630;28;20049;-75
2022/06/16 00:52:41;;;;;;;1999.90;999.90;;;11.60;99.90;;;;;;5028796;28;20052;-75
2022/06/16 00:55:12;;;;;;;1999.90;999.90;;;11.50;99.90;;;;;;5014874;28;20083;-75
2022/06/16 00:57:42;;;;;;;1999.90;999.90;;;11.50;99.90;;;;;;5029203;28;20050;-76
2022/06/16 01:00:26;;;;;;;1999.90;999.90;;;11.40;99.90;;;;;;5045409;28;20547;-75
2022/06/16 01:02:52;;;;;;;1999.90;999.90;;;11.40;99.90;;;;;;5045051;28;20478;-75
2022/06/16 01:05:17;;;;;;;1999.90;999.90;;;11.40;99.90;;;;;;5028700;28;20033;-75
2022/06/16 01:07:45;;;;;;;1999.90;999.90;;;11.40;99.90;;;;;;5036714;28;20128;-76
2022/06/16 01:10:14;;;;;;;1999.90;999.90;;;11.40;99.90;;;;;;5045057;28;20126;-76
2022/06/16 01:16:00;;;;;;;1999.90;999.90;;;11.30;99.90;;;;;;5028696;28;20057;-75
2022/06/16 01:18:37;;;;;;;1999.90;999.90;;;11.30;99.90;;;;;;5026047;28;20404;-75
2022/06/16 01:21:05;;;;;;;1999.90;999.90;;;11.30;99.90;;;;;;5035461;28;20116;-76
2022/06/16 01:23:42;;;;;;;1999.90;999.90;;;11.30;99.90;;;;;;5023678;28;20049;-75
2022/06/16 01:26:42;;;;;;;1999.90;999.90;;;11.20;99.90;;;;;;5022942;28;20085;-76
2022/06/16 01:29:26;;;;;;;1999.90;999.90;;;11.20;99.90;;;;;;5028114;28;20498;-76
2022/06/16 01:32:12;;;;;;;1999.90;999.90;;;11.30;99.90;;;;;;5024691;28;20046;-75
2022/06/16 01:34:56;;;;;;;1999.90;999.90;;;11.30;99.90;;;;;;5061091;28;20057;-76
2022/06/16 01:37:27;;;;;;;1999.90;999.90;;;11.40;99.90;;;;;;5061500;28;20050;-76
2022/06/16 01:40:11;;;;;;;1999.90;999.90;;;11.40;99.90;;;;;;5023939;28;20045;-75
2022/06/16 01:42:42;;;;;;;1999.90;999.90;;;11.40;99.90;;;;;;5040559;28;20496;-76
2022/06/16 01:45:44;;;;;;;1999.90;999.90;;;11.50;99.90;;;;;;5045816;28;20147;-76
2022/06/16 01:48:13;;;;;;;1999.90;999.90;;;11.50;99.90;;;;;;5044884;28;20060;-76
2022/06/16 01:51:12;;;;;;;1999.90;999.90;;;11.50;99.90;;;;;;5043562;28;20037;-76
2022/06/16 01:54:12;;;;;;;1999.90;999.90;;;11.60;99.90;;;;;;5027910;28;20465;-76
2022/06/16 01:56:44;;;;;;;1999.90;999.90;;;11.60;99.90;;;;;;5009688;28;20460;-76
2022/06/16 01:59:21;;;;;;;1999.90;999.90;;;11.60;99.90;;;;;;5044272;28;20083;-76
2022/06/16 02:01:51;;;;;;;1999.90;999.90;;;11.60;99.90;;;;;;5022153;28;20086;-76
2022/06/16 02:04:28;;;;;;;1999.90;999.90;;;11.60;99.90;;;;;;5026960;28;20076;-75
2022/06/16 02:06:57;;;;;;;1999.90;999.90;;;11.60;99.90;;;;;;5012077;28;20087;-76
2022/06/16 02:09:36;;;;;;;1999.90;999.90;;;11.60;99.90;;;;;;5023140;28;20045;-76
2022/06/16 02:12:07;;;;;;;1999.90;999.90;;;11.60;99.90;;;;;;5011282;28;20041;-76
2022/06/16 02:14:40;;;;;;;1999.90;999.90;;;11.60;99.90;;;;;;5027791;28;20147;-76
2022/06/16 02:17:09;;;;;;;1999.90;999.90;;;11.60;99.90;;;;;;5043106;28;20084;-76
2022/06/16 02:19:35;;;;;;;1999.90;999.90;;;11.50;99.90;;;;;;5035449;28;20072;-76
2022/06/16 02:22:02;;;;;;;1999.90;999.90;;;11.50;99.90;;;;;;5043102;28;20045;-75
2022/06/16 02:24:30;;;;;;;1999.90;999.90;;;11.50;99.90;;;;;;5027131;28;20057;-76
2022/06/16 02:26:58;;;;;;;1999.90;999.90;;;11.50;99.90;;;;;;5020277;28;20052;-76
2022/06/16 02:29:37;;;;;;;1999.90;999.90;;;11.40;99.90;;;;;;5044015;28;20264;-76
2022/06/16 02:32:18;;;;;;;1999.90;999.90;;;11.40;99.90;;;;;;5050106;28;20096;-75
2022/06/16 02:35:05;;;;;;;1999.90;999.90;;;11.40;99.90;;;;;;5027228;28;20041;-76
2022/06/16 02:38:06;;;;;;;1999.90;999.90;;;11.30;99.90;;;;;;5040370;28;20112;-76
2022/06/16 02:41:05;;;;;;;1999.90;999.90;;;11.20;99.90;;;;;;5019219;28;20045;-76
2022/06/16 02:43:49;;;;;;;1999.90;999.90;;;11.20;99.90;;;;;;5011996;28;20054;-76
2022/06/16 02:46:35;;;;;;;1999.90;999.90;;;11.10;99.90;;;;;;5036453;28;20104;-76
2022/06/16 02:49:35;;;;;;;1999.90;999.90;;;11.10;99.90;;;;;;5044146;28;20068;-76
2022/06/16 02:52:37;;;;;;;1999.90;999.90;;;11.00;99.90;;;;;;5048017;28;20068;-76
2022/06/16 02:55:11;;;;;;;1999.90;999.90;;;11.00;99.90;;;;;;5043267;28;20041;-76
2022/06/16 02:57:47;;;;;;;1999.90;999.90;;;11.00;99.90;;;;;;5043810;28;20061;-76
2022/06/16 03:00:17;;;;;;;1999.90;999.90;;;10.90;99.90;;;;;;5024526;28;20052;-76
2022/06/16 03:02:43;;;;;;;1999.90;999.90;;;10.90;99.90;;;;;;5042883;28;20053;-75
2022/06/16 03:05:12;;;;;;;1999.90;999.90;;;10.90;99.90;;;;;;5043483;28;20057;-76
2022/06/16 03:07:38;;;;;;;1999.90;999.90;;;10.90;99.90;;;;;;5024960;28;20049;-76
2022/06/16 03:10:05;;;;;;;1999.90;999.90;;;10.90;99.90;;;;;;5043079;28;20398;-76
2022/06/16 03:12:32;;;;;;;1999.90;999.90;;;10.90;99.90;;;;;;5042928;28;20628;-76
2022/06/16 03:14:57;;;;;;;1999.90;999.90;;;10.90;99.90;;;;;;5023391;28;20581;-76
2022/06/16 03:17:23;;;;;;;1999.90;999.90;;;10.90;99.90;;;;;;5037096;28;20166;-76
2022/06/16 03:19:49;;;;;;;1999.90;999.90;;;10.80;99.90;;;;;;5043349;28;20042;-76
2022/06/16 03:22:14;;;;;;;1999.90;999.90;;;10.90;99.90;;;;;;5039081;28;20112;-76
2022/06/16 03:24:40;;;;;;;1999.90;999.90;;;10.90;99.90;;;;;;5044062;28;20045;-76
2022/06/16 03:27:07;;;;;;;1999.90;999.90;;;11.00;99.90;;;;;;5047654;28;20065;-76
2022/06/16 03:29:33;;;;;;;1999.90;999.90;;;11.00;99.90;;;;;;5046398;28;20041;-76
2022/06/16 03:31:58;;;;;;;1999.90;999.90;;;11.00;99.90;;;;;;5040965;28;20044;-76
2022/06/16 03:34:25;;;;;;;1999.90;999.90;;;11.10;99.90;;;;;;5032696;28;20476;-76
2022/06/16 03:36:51;;;;;;;1999.90;999.90;;;11.10;99.90;;;;;;5046652;28;20056;-76
2022/06/16 03:39:17;;;;;;;1999.90;999.90;;;11.10;99.90;;;;;;5022929;28;20454;-76
2022/06/16 03:41:42;;;;;;;1999.90;999.90;;;11.20;99.90;;;;;;5030230;28;20044;-76
2022/06/16 03:44:08;;;;;;;1999.90;999.90;;;11.10;99.90;;;;;;5038478;28;20517;-76
2022/06/16 03:46:34;;;;;;;1999.90;999.90;;;11.20;99.90;;;;;;5021658;28;20113;-76
2022/06/16 03:49:00;;;;;;;1999.90;999.90;;;11.10;99.90;;;;;;5029616;28;20259;-76
2022/06/16 03:51:26;;;;;;;1999.90;999.90;;;11.10;99.90;;;;;;5046500;28;20095;-76
2022/06/16 03:53:51;;;;;;;1999.90;999.90;;;11.20;99.90;;;;;;5042418;28;20037;-76
2022/06/16 03:56:18;;;;;;;1999.90;999.90;;;11.20;99.90;;;;;;5029354;28;20087;-76
2022/06/16 03:58:43;;;;;;;1999.90;999.90;;;11.20;99.90;;;;;;5026251;28;20064;-76
2022/06/16 04:01:10;;;;;;;1999.90;999.90;;;11.20;99.90;;;;;;5027110;28;20037;-76
2022/06/16 04:06:20;;;;;;;1999.90;999.90;;;11.40;99.90;;;;;;5018225;28;20037;-76
2022/06/16 04:08:46;;;;;;;1999.90;999.90;;;11.50;99.90;;;;;;5029913;28;20535;-76
2022/06/16 04:11:27;;;;;;;1999.90;999.90;;;11.50;99.90;;;;;;5028672;28;20037;-76
2022/06/16 04:13:53;;;;;;;1999.90;999.90;;;11.50;99.90;;;;;;5029822;28;20383;-76
2022/06/16 04:16:19;;;;;;;1999.90;999.90;;;11.60;99.90;;;;;;5046217;28;20048;-76
2022/06/16 04:18:45;;;;;;;1999.90;999.90;;;11.70;99.90;;;;;;5032080;28;20045;-76
2022/06/16 04:21:11;;;;;;;1999.90;999.90;;;11.70;99.90;;;;;;5018051;28;20040;-76
2022/06/16 04:23:37;;;;;;;1999.90;999.90;;;11.90;99.90;;;;;;5028614;28;20058;-76
2022/06/16 04:26:03;;;;;;;1999.90;999.90;;;12.00;99.90;;;;;;5029069;28;20494;-76
2022/06/16 04:28:29;;;;;;;1999.90;999.90;;;12.10;99.90;;;;;;5045819;28;20116;-76
2022/06/16 04:30:55;;;;;;;1999.90;999.90;;;12.20;99.90;;;;;;5045327;28;20131;-76
2022/06/16 04:33:21;;;;;;;1999.90;999.90;;;12.30;99.90;;;;;;5023388;28;20053;-76
2022/06/16 04:35:46;;;;;;;1999.90;999.90;;;12.40;99.90;;;;;;5029212;28;20042;-76
2022/06/16 04:38:12;;;;;;;1999.90;999.90;;;12.70;99.90;;;;;;5042836;28;20402;-76
2022/06/16 04:40:38;;;;;;;1999.90;999.90;;;13.20;99.90;;;;;;5036455;28;20127;-76
2022/06/16 04:43:03;;;;;;;1999.90;999.90;;;13.40;99.90;;;;;;5046347;28;20201;-76
2022/06/16 04:45:29;;;;;;;1999.90;999.90;;;13.50;99.90;;;;;;5045235;28;20460;-76
2022/06/16 04:47:55;;;;;;;1999.90;999.90;;;13.60;99.90;;;;;;5024803;28;20045;-76
2022/06/16 04:50:20;;;;;;;1999.90;999.90;;;13.80;99.90;;;;;;5045815;28;20041;-76
2022/06/16 04:52:47;;;;;;;1999.90;999.90;;;13.90;99.90;;;;;;5045512;28;20398;-76
2022/06/16 04:55:14;;;;;;;1999.90;999.90;;;14.10;99.90;;;;;;5026269;28;20071;-76
2022/06/16 04:57:39;;;;;;;1999.90;999.90;;;14.10;99.90;;;;;;5019984;28;20034;-76
2022/06/16 05:00:07;;;;;;;1999.90;999.90;;;14.30;99.90;;;;;;5041820;28;20068;-76
2022/06/16 05:02:32;;;;;;;1999.90;999.90;;;14.40;99.90;;;;;;5025156;28;20045;-76
2022/06/16 05:04:58;;;;;;;1999.90;999.90;;;14.50;99.90;;;;;;5028680;28;20060;-76
2022/06/16 05:07:24;;;;;;;1999.90;999.90;;;14.60;99.90;;;;;;5042992;28;20040;-76
2022/06/16 05:09:49;;;;;;;1999.90;999.90;;;14.60;99.90;;;;;;5034471;28;20131;-76
2022/06/16 05:12:15;;;;;;;1999.90;999.90;;;14.70;99.90;;;;;;5038112;28;20047;-76
2022/06/16 05:14:41;;;;;;;1999.90;999.90;;;14.80;99.90;;;;;;5039050;28;20073;-76
2022/06/16 05:17:07;;;;;;;1999.90;999.90;;;14.90;99.90;;;;;;5038169;28;20041;-76
2022/06/16 05:19:32;;;;;;;1999.90;999.90;;;15.10;99.90;;;;;;5011963;28;20176;-76
2022/06/16 05:22:00;;;;;;;1999.90;999.90;;;15.20;99.90;;;;;;5020249;28;20049;-76
2022/06/16 05:24:27;;;;;;;1999.90;999.90;;;15.20;99.90;;;;;;5034762;28;20075;-76
2022/06/16 05:26:53;;;;;;;1999.90;999.90;;;15.20;99.90;;;;;;5036278;28;20048;-76
2022/06/16 05:29:19;;;;;;;1999.90;999.90;;;15.20;99.90;;;;;;5044256;28;20589;-76
2022/06/16 05:31:46;;;;;;;1999.90;999.90;;;15.20;99.90;;;;;;5044847;28;20148;-76
2022/06/16 05:34:12;;;;;;;1999.90;999.90;;;15.40;99.90;;;;;;5028240;28;20073;-76
2022/06/16 05:36:37;;;;;;;1999.90;999.90;;;15.50;99.90;;;;;;5030726;28;20502;-76
2022/06/16 05:39:03;;;;;;;1999.90;999.90;;;15.70;99.90;;;;;;5028739;28;20049;-77
2022/06/16 05:41:29;;;;;;;1999.90;999.90;;;15.80;99.90;;;;;;5026590;28;20041;-77
2022/06/16 05:43:55;;;;;;;1999.90;999.90;;;15.80;99.90;;;;;;5036619;28;20048;-76
2022/06/16 05:46:24;;;;;;;1999.90;999.90;;;15.80;99.90;;;;;;5030546;28;20071;-76
2022/06/16 05:48:51;;;;;;;1999.90;999.90;;;15.80;99.90;;;;;;5025877;28;20056;-77
2022/06/16 05:51:18;;;;;;;1999.90;999.90;;;15.90;99.90;;;;;;5054035;28;20095;-77
2022/06/16 05:53:43;;;;;;;1999.90;999.90;;;15.90;99.90;;;;;;5022675;28;20045;-77
2022/06/16 05:56:09;;;;;;;1999.90;999.90;;;16.00;99.90;;;;;;5027755;28;20102;-77
2022/06/16 05:58:35;;;;;;;1999.90;999.90;;;16.20;99.90;;;;;;5044348;28;20062;-77
2022/06/16 06:01:02;;;;;;;1999.90;999.90;;;16.30;99.90;;;;;;5027907;28;20041;-77
2022/06/16 06:03:28;;;;;;;1999.90;999.90;;;16.60;99.90;;;;;;5036914;28;20077;-77
2022/06/16 06:05:54;;;;;;;1999.90;999.90;;;16.90;99.90;;;;;;5044370;28;20041;-77
2022/06/16 06:16:40;;;;;;;1999.90;999.90;;;20.40;99.90;;;;;;5051554;28;20053;-78
2022/06/16 06:19:23;;;;;;;1999.90;999.90;;;21.60;99.90;;;;;;5047597;28;20045;-78
2022/06/16 06:22:01;;;;;;;;;;;22.40;99.90;;;;;;5018263;28;20073;-78
2022/06/16 06:24:32;;;;;;;1999.90;999.90;;;22.90;99.90;;;;;;5010831;28;19925;-78
2022/06/16 06:27:00;;;;;;;1999.90;999.90;;;23.30;99.90;;;;;;5037578;28;20428;-78
2022/06/16 06:29:26;;;;;;;1999.90;999.90;;;23.30;99.90;;;;;;5057402;28;20045;-78
2022/06/16 06:31:52;;;;;;;1999.90;999.90;;;23.20;99.90;;;;;;5043230;28;20283;-75
2022/06/16 06:34:18;;;;;;;1999.90;999.90;;;23.50;99.20;;;;;;5027091;28;20120;-76
2022/06/16 06:36:43;;;;;;;1999.90;999.90;;;23.80;99.90;;;;;;5031218;28;20044;-76
2022/06/16 06:39:11;;;;;;;1999.90;999.90;;;23.90;98.10;;;;;;5011880;28;20524;-78
2022/06/16 06:41:37;;;;;;;1999.90;999.90;;;24.20;95.90;;;;;;5028134;28;20395;-79
2022/06/16 06:44:03;;;;;;;1999.90;999.90;;;24.30;96.50;;;;;;5027100;28;20049;-78
2022/06/16 06:46:28;;;;;;;1999.90;999.90;;;24.30;97.10;;;;;;5028616;28;20154;-78
2022/06/16 06:48:54;;;;;;;1999.90;999.90;;;24.20;91.70;;;;;;5044106;28;20038;-78
2022/06/16 06:51:20;;;;;;;1999.90;999.90;;;24.40;94.10;;;;;;5035293;28;20033;-78
2022/06/16 06:53:45;;;;;;;1999.90;999.90;;;24.60;91.10;;;;;;5010791;28;20517;-78
2022/06/16 06:56:13;;;;;;;1999.90;999.90;;;24.90;87.60;;;;;;5028292;28;20049;-78
2022/06/16 06:58:39;;;;;;;1999.90;999.90;;;25.20;89.40;;;;;;5044032;28;20038;-78
2022/06/16 07:01:06;;;;;;;1999.90;999.90;;;25.30;82.00;;;;;;5030797;28;20056;-78
2022/06/16 07:03:33;;;;;;;1999.90;999.90;;;25.10;85.00;;;;;;5030730;28;20040;-75
2022/06/16 07:06:04;;;;;;;1999.90;999.90;;;25.00;81.50;;;;;;5047709;28;20037;-76
2022/06/16 07:08:30;;;;;;;1999.90;999.90;;;25.20;78.20;;;;;;5027828;28;20496;-76
2022/06/16 07:10:56;;;;;;;1999.90;999.90;;;25.40;75.70;;;;;;5047546;28;20049;-75
2022/06/16 07:13:23;;;;;;;1999.90;999.90;;;25.50;77.10;;;;;;5029873;28;20551;-75
2022/06/16 07:15:49;;;;;;;1999.90;999.90;;;25.50;70.80;;;;;;5060376;28;20045;-75
2022/06/16 07:18:14;;;;;;;1999.90;999.90;;;25.80;73.30;;;;;;5047159;28;20050;-75
2022/06/16 07:20:40;;;;;;;1999.90;999.90;;;25.90;76.90;;;;;;5030873;28;20076;-76
2022/06/16 07:23:05;;;;;;;1999.90;999.90;;;25.90;67.40;;;;;;5036969;28;20395;-75
2022/06/16 07:25:31;;;;;;;1999.90;999.90;;;25.90;71.00;;;;;;5030822;28;20053;-75
2022/06/16 07:27:58;;;;;;;1999.90;999.90;;;25.70;72.00;;;;;;5038822;28;20112;-75
2022/06/16 07:30:24;;;;;;;1999.90;999.90;;;25.60;67.00;;;;;;5046944;28;20122;-75
2022/06/16 07:32:51;;;;;;;1999.90;999.90;;;25.60;66.00;;;;;;5030410;28;20045;-75
2022/06/16 07:35:19;;;;;;;1999.90;999.90;;;25.50;64.30;;;;;;5047900;28;20126;-75
2022/06/16 07:37:45;;;;;;;1999.90;999.90;;;25.50;66.00;;;;;;5025578;28;20045;-76
2022/06/16 07:40:13;;;;;;;1999.90;999.90;;;25.60;65.20;;;;;;5049920;28;20405;-75
2022/06/16 07:42:39;;;;;;;1999.90;999.90;;;25.50;69.80;;;;;;5012219;28;20045;-75
2022/06/16 07:45:06;;;;;;;1999.90;999.90;;;25.30;66.10;;;;;;5029476;28;20175;-75
2022/06/16 07:47:32;;;;;;;1999.90;999.90;;;25.00;67.20;;;;;;5047014;28;20042;-76
2022/06/16 07:49:59;;;;;;;1999.90;999.90;;;25.10;68.50;;;;;;5046857;28;20413;-75
2022/06/16 07:52:25;;;;;;;1999.90;999.90;;;25.20;67.50;;;;;;5026317;28;20049;-75
2022/06/16 07:54:50;;;;;;;1999.90;999.90;;;25.40;65.90;;;;;;5063065;28;20056;-75
2022/06/16 07:57:18;;;;;;;1999.90;999.90;;;25.60;64.10;;;;;;5027816;28;20041;-75
2022/06/16 07:59:48;;;;;;;1999.90;999.90;;;25.90;65.40;;;;;;5057319;28;20088;-75
2022/06/16 08:02:14;;;;;;;1999.90;999.90;;;25.90;65.80;;;;;;5050349;28;20123;-75
2022/06/16 08:04:39;;;;;;;1999.90;999.90;;;25.70;66.60;;;;;;5036229;28;20156;-75
2022/06/16 08:07:05;;;;;;;1999.90;999.90;;;25.20;66.80;;;;;;5029240;28;20490;-75
2022/06/16 08:09:33;;;;;;;1999.90;999.90;;;24.90;66.40;;;;;;5016930;28;20127;-75
2022/06/16 08:12:06;;;;;;;1999.90;999.90;;;24.50;66.10;;;;;;5046108;28;20518;-75
2022/06/16 08:14:36;;;;;;;1999.90;999.90;;;24.50;65.20;;;;;;5048923;28;20045;-75
2022/06/16 08:17:24;;;;;;;1999.90;999.90;;;24.70;65.10;;;;;;5039989;28;20049;-75
2022/06/16 08:19:51;;;;;;;1999.90;999.90;;;25.00;67.30;;;;;;5024588;28;20064;-75
2022/06/16 08:22:18;;;;;;;1999.90;999.90;;;25.20;66.80;;;;;;5045827;28;20136;-75
2022/06/16 08:24:44;;;;;;;1999.90;999.90;;;25.20;65.90;;;;;;5019125;28;20529;-75
2022/06/16 08:27:11;;;;;;;1999.90;999.90;;;25.00;65.00;;;;;;5045108;28;20065;-75
2022/06/16 08:29:39;;;;;;;1999.90;999.90;;;24.70;63.10;;;;;;5012818;28;20095;-75
2022/06/16 08:32:05;;;;;;;1999.90;999.90;;;24.70;63.80;;;;;;5040626;28;20498;-74
2022/06/16 08:34:31;;;;;;;1999.90;999.90;;;25.10;66.40;;;;;;5024934;28;20046;-75
2022/06/16 08:36:56;;;;;;;1999.90;999.90;;;25.20;66.20;;;;;;5045755;28;20049;-75
2022/06/16 08:39:22;;;;;;;1999.90;999.90;;;25.30;65.50;;;;;;5028940;28;20053;-75
2022/06/16 08:41:53;;;;;;;1999.90;999.90;;;25.20;63.30;;;;;;5040864;28;20118;-75
2022/06/16 08:44:28;;;;;;;1999.90;999.90;;;25.30;65.90;;;;;;5048449;28;20064;-75
2022/06/16 08:47:09;;;;;;;1999.90;999.90;;;25.40;65.50;;;;;;5016886;28;20233;-75
2022/06/16 08:49:45;;;;;;;1999.90;999.90;;;25.20;65.10;;;;;;5040993;28;20057;-75
2022/06/16 08:52:28;;;;;;;1999.90;999.90;;;24.90;64.10;;;;;;5025623;28;20129;-75
2022/06/16 08:55:25;;;;;;;1999.90;999.90;;;24.50;62.50;;;;;;5004123;28;20048;-75
2022/06/16 08:58:18;;;;;;;1999.90;999.90;;;24.30;64.80;;;;;;5035762;28;20045;-75
2022/06/16 09:00:48;;;;;;;1999.90;999.90;;;24.00;65.00;;;;;;4997871;28;20500;-75
2022/06/16 09:03:48;;;;;;;1999.90;999.90;;;24.00;66.50;;;;;;5058044;28;20034;-75
2022/06/16 09:06:22;;;;;;;1999.90;999.90;;;24.50;66.10;;;;;;4998588;28;20046;-75
2022/06/16 09:12:40;;;;;;;1999.90;999.90;;;24.50;66.10;;;;;;5017186;28;20049;-75
2022/06/16 09:15:20;;;;;;;1999.90;999.90;;;24.50;65.20;;;;;;4985308;28;20050;-75
2022/06/16 09:18:23;;;;;;;1999.90;999.90;;;24.50;64.10;;;;;;4980850;28;20123;-75
2022/06/16 09:21:09;;;;;;;1999.90;999.90;;;24.50;63.60;;;;;;5019955;28;20093;-75
2022/06/16 09:23:41;;;;;;;1999.90;999.90;;;24.80;62.00;;;;;;5014543;28;20533;-74
2022/06/16 09:26:31;;;;;;;1999.90;999.90;;;25.10;63.10;;;;;;4981232;28;20042;-75
2022/06/16 09:29:26;;;;;;;1999.90;999.90;;;25.30;64.20;;;;;;5015602;28;20050;-76
2022/06/16 09:32:13;;;;;;;1999.90;999.90;;;25.40;63.20;;;;;;4977513;28;20046;-75
2022/06/16 09:34:51;;;;;;;1999.90;999.90;;;25.50;63.10;;;;;;4994429;28;20056;-76
2022/06/16 09:37:51;;;;;;;1999.90;999.90;;;25.40;62.70;;;;;;5009727;28;20133;-76
2022/06/16 09:40:35;;;;;;;1999.90;999.90;;;25.40;61.10;;;;;;4986848;28;20097;-76
2022/06/16 09:43:10;;;;;;;1999.90;999.90;;;25.40;62.10;;;;;;5047657;28;20510;-76
2022/06/16 09:45:53;;;;;;;1999.90;999.90;;;25.30;63.80;;;;;;5027899;28;20034;-76
2022/06/16 09:48:37;;;;;;;1999.90;999.90;;;25.50;63.60;;;;;;5044664;28;20060;-76
2022/06/16 09:51:14;;;;;;;1999.90;999.90;;;25.70;62.30;;;;;;5019394;28;20426;-76
2022/06/16 09:54:10;;;;;;;1999.90;999.90;;;25.70;62.10;;;;;;5022733;28;20092;-75
2022/06/16 09:56:45;;;;;;;1999.90;999.90;;;25.70;61.60;;;;;;5027937;28;20093;-76
2022/06/16 09:59:16;;;;;;;1999.90;999.90;;;25.50;60.80;;;;;;5022485;28;20045;-76
2022/06/16 10:01:48;;;;;;;1999.90;999.90;;;25.40;61.70;;;;;;5022675;28;20112;-76
2022/06/16 10:04:14;;;;;;;;;;;25.20;60.50;;;;;;5028117;28;20397;-76
2022/06/16 10:07:03;;;;;;;1999.90;999.90;;;25.30;61.50;;;;;;5026938;28;19921;-76
2022/06/16 10:09:55;;;;;;;1999.90;999.90;;;25.50;60.90;;;;;;5045754;28;20901;-76
2022/06/16 10:12:49;;;;;;;1999.90;999.90;;;25.40;60.90;;;;;;5043343;28;20095;-75
2022/06/16 10:15:36;;;;;;;1999.90;999.90;;;25.10;60.90;;;;;;5038525;28;20450;-75
2022/06/16 10:18:04;;;;;;;1999.90;999.90;;;25.00;60.80;;;;;;5059777;28;20045;-75
2022/06/16 10:20:30;;;;;;;1999.90;999.90;;;25.00;59.90;;;;;;5026739;28;20045;-76
2022/06/16 10:23:11;;;;;;;1999.90;999.90;;;25.00;61.60;;;;;;5042807;28;20103;-75
2022/06/16 10:25:46;;;;;;;1999.90;999.90;;;25.00;60.60;;;;;;5010151;28;20045;-75
2022/06/16 10:28:23;;;;;;;1999.90;999.90;;;25.00;61.70;;;;;;5027690;28;20474;-75
2022/06/16 10:30:50;;;;;;;1999.90;999.90;;;25.00;61.20;;;;;;5019091;28;20044;-76
2022/06/16 10:33:21;;;;;;;1999.90;999.90;;;24.90;61.30;;;;;;5060670;28;20045;-75
2022/06/16 10:35:54;;;;;;;1999.90;999.90;;;25.00;62.50;;;;;;5027026;28;20045;-75
2022/06/16 10:38:37;;;;;;;1999.90;999.90;;;25.10;60.20;;;;;;5022748;28;20094;-75
2022/06/16 10:41:29;;;;;;;1999.90;999.90;;;25.10;61.60;;;;;;5041320;28;20164;-75
2022/06/16 10:44:00;;;;;;;1999.90;999.90;;;25.10;61.20;;;;;;5024771;28;20045;-75
2022/06/16 10:46:32;;;;;;;1999.90;999.90;;;25.20;60.90;;;;;;5027396;28;20544;-75
2022/06/16 10:49:01;;;;;;;1999.90;999.90;;;25.20;62.00;;;;;;5027078;28;20041;-76
2022/06/16 10:51:29;;;;;;;1999.90;999.90;;;25.20;61.40;;;;;;5025881;28;20375;-75
2022/06/16 10:54:13;;;;;;;1999.90;999.90;;;25.20;61.60;;;;;;5022047;28;20099;-75
2022/06/16 10:56:40;;;;;;;1999.90;999.90;;;25.20;60.50;;;;;;5026353;28;20068;-75
2022/06/16 10:59:16;;;;;;;1999.90;999.90;;;25.00;60.70;;;;;;5027435;28;20119;-75
2022/06/16 11:01:53;;;;;;;1999.90;999.90;;;24.90;59.60;;;;;;5027199;28;20047;-75
2022/06/16 11:04:22;;;;;;;1999.90;999.90;;;24.90;61.70;;;;;;5004500;28;20046;-75
2022/06/16 11:06:52;;;;;;;1999.90;999.90;;;25.00;61.70;;;;;;5042082;28;20083;-75
2022/06/16 11:09:24;;;;;;;1999.90;999.90;;;24.90;60.40;;;;;;5026758;28;20033;-75
2022/06/16 11:12:04;;;;;;;1999.90;999.90;;;24.60;60.90;;;;;;5031099;28;20132;-75
2022/06/16 11:14:52;;;;;;;1999.90;999.90;;;24.00;61.80;;;;;;5022874;28;20111;-75
2022/06/16 11:17:36;;;;;;;1999.90;999.90;;;23.80;63.00;;;;;;5018378;28;20412;-75
2022/06/16 11:20:34;;;;;;;1999.90;999.90;;;24.00;62.70;;;;;;5029320;28;20084;-75
2022/06/16 11:23:00;;;;;;;1999.90;999.90;;;24.30;62.60;;;;;;5055353;28;20061;-75
2022/06/16 11:25:36;;;;;;;1999.90;999.90;;;24.50;60.70;;;;;;5026700;28;20100;-75
2022/06/16 11:28:13;;;;;;;1999.90;999.90;;;24.30;61.00;;;;;;5023497;28;20050;-75
2022/06/16 11:30:48;;;;;;;1999.90;999.90;;;24.00;60.80;;;;;;5020315;28;20048;-75
2022/06/16 11:34:06;;;;;;;1999.90;999.90;;;23.60;61.40;;;;;;5020390;28;20045;-74
2022/06/16 11:36:21;;;;;;;1999.90;999.90;;;23.20;62.20;;;;;;5022476;28;20049;-75
2022/06/16 11:39:05;;;;;;;1999.90;999.90;;;23.40;64.20;;;;;;5037702;28;20052;-75
2022/06/16 11:41:32;;;;;;;1999.90;999.90;;;23.80;63.10;;;;;;5025949;28;20037;-75
2022/06/16 11:44:02;;;;;;;1999.90;999.90;;;24.00;62.40;;;;;;5041801;28;20045;-75
2022/06/16 11:46:41;;;;;;;1999.90;999.90;;;23.90;61.90;;;;;;5046441;28;20514;-75
2022/06/16 11:49:20;;;;;;;1999.90;999.90;;;24.00;61.90;;;;;;5038529;28;20037;-75
2022/06/16 11:52:20;;;;;;;1999.90;999.90;;;24.20;60.80;;;;;;5024153;28;20502;-75
2022/06/16 11:54:49;;;;;;;1999.90;999.90;;;24.50;60.40;;;;;;5054232;28;20045;-75
2022/06/16 11:57:30;;;;;;;1999.90;999.90;;;24.80;61.40;;;;;;5008268;28;20049;-75
2022/06/16 12:00:15;;;;;;;1999.90;999.90;;;25.00;60.40;;;;;;5051647;28;20045;-77
2022/06/16 12:03:14;;;;;;;1999.90;999.90;;;25.20;58.00;;;;;;5006793;28;20391;-77
2022/06/16 12:05:50;;;;;;;1999.90;999.90;;;25.20;57.30;;;;;;5021853;28;20053;-78
2022/06/16 12:08:26;;;;;;;1999.90;999.90;;;25.30;59.10;;;;;;5008176;28;20075;-77
2022/06/16 12:11:35;;;;;;;1999.90;999.90;;;25.40;57.90;;;;;;5054620;28;20398;-77
2022/06/16 12:14:14;;;;;;;1999.90;999.90;;;25.40;57.70;;;;;;5007613;28;20064;-77
2022/06/16 12:17:02;;;;;;;1999.90;999.90;;;25.40;57.80;;;;;;5011019;28;20080;-78
2022/06/16 12:20:00;;;;;;;1999.90;999.90;;;25.30;58.00;;;;;;5030151;28;20123;-78
2022/06/16 12:22:40;;;;;;;1999.90;999.90;;;25.00;58.50;;;;;;5005547;28;20080;-77
2022/06/16 12:25:23;;;;;;;1999.90;999.90;;;25.00;58.50;;;;;;5020352;28;20049;-77
2022/06/16 12:28:06;;;;;;;1999.90;999.90;;;25.20;59.80;;;;;;5012332;28;20091;-78
2022/06/16 12:31:06;;;;;;;1999.90;999.90;;;25.50;58.50;;;;;;5021531;28;20045;-77
2022/06/16 12:34:00;;;;;;;1999.90;999.90;;;25.60;59.70;;;;;;5043295;28;20401;-78
2022/06/16 12:36:35;;;;;;;1999.90;999.90;;;25.70;57.70;;;;;;5043749;28;20040;-77
2022/06/16 12:39:08;;;;;;;1999.90;999.90;;;25.80;60.70;;;;;;5029682;28;20045;-76
2022/06/16 12:41:41;;;;;;;1999.90;999.90;;;25.80;58.70;;;;;;5045524;28;20041;-77
2022/06/16 12:44:10;;;;;;;1999.90;999.90;;;25.40;57.70;;;;;;5026715;28;20045;-77
2022/06/16 12:46:48;;;;;;;1999.90;999.90;;;25.30;58.30;;;;;;5028576;28;20037;-77